createdAt,value
2023-01-22T00:00:08.210Z,0
2023-01-22T00:03:07.833Z,0
2023-01-22T00:06:07.940Z,0
2023-01-22T00:09:07.975Z,0
2023-01-22T00:12:08.017Z,0
2023-01-22T00:15:08.046Z,0
2023-01-22T00:18:07.891Z,0
2023-01-22T00:21:07.969Z,0
2023-01-22T00:24:08.130Z,0
2023-01-22T00:27:08.011Z,0
2023-01-22T00:30:07.968Z,0
2023-01-22T00:33:08.011Z,0
2023-01-22T00:36:07.833Z,0
2023-01-22T00:39:07.837Z,0
2023-01-22T00:42:07.892Z,0
2023-01-22T00:45:07.896Z,0
2023-01-22T00:48:07.878Z,0
2023-01-22T00:51:08.048Z,0
2023-01-22T00:54:08.004Z,0
2023-01-22T00:57:08.137Z,0
2023-01-22T01:00:08.439Z,0
2023-01-22T01:03:08.316Z,0
2023-01-22T01:06:08.033Z,0
2023-01-22T01:09:07.992Z,0
2023-01-22T01:12:09.249Z,0
2023-01-22T01:15:08.489Z,0
2023-01-22T01:18:08.158Z,0
2023-01-22T01:21:09.031Z,0
2023-01-22T01:24:07.997Z,0
2023-01-22T01:27:08.236Z,0
2023-01-22T01:30:08.186Z,0
2023-01-22T01:33:08.023Z,0
2023-01-22T01:36:08.592Z,0
2023-01-22T01:39:08.163Z,0
2023-01-22T01:42:08.041Z,0
2023-01-22T01:45:09.119Z,0
2023-01-22T01:48:07.966Z,0
2023-01-22T01:51:08.335Z,0
2023-01-22T01:54:07.994Z,0
2023-01-22T01:57:07.953Z,0
2023-01-22T02:00:08.261Z,0
2023-01-22T02:03:07.944Z,0
2023-01-22T02:06:07.853Z,0
2023-01-22T02:09:08.293Z,0
2023-01-22T02:12:08.259Z,0
2023-01-22T02:15:07.974Z,0
2023-01-22T02:18:07.934Z,0
2023-01-22T02:21:09.350Z,0
2023-01-22T02:24:08.177Z,0
2023-01-22T02:27:08.022Z,0
2023-01-22T02:30:08.159Z,0
2023-01-22T02:33:08.464Z,0
2023-01-22T02:36:08.988Z,0
2023-01-22T02:39:07.860Z,0
2023-01-22T02:42:07.968Z,0
2023-01-22T02:45:09.670Z,0
2023-01-22T02:48:07.931Z,0
2023-01-22T02:51:08.433Z,0
2023-01-22T02:54:08.432Z,0
2023-01-22T02:57:08.123Z,0
2023-01-22T03:00:08.188Z,0
2023-01-22T03:03:07.891Z,0
2023-01-22T03:06:07.960Z,0
2023-01-22T03:09:07.858Z,0
2023-01-22T03:12:08.280Z,0
2023-01-22T03:15:08.986Z,0
2023-01-22T03:18:07.914Z,0
2023-01-22T03:21:08.088Z,0
2023-01-22T03:24:07.891Z,0
2023-01-22T03:27:07.832Z,0
2023-01-22T03:30:08.074Z,0
2023-01-22T03:33:07.872Z,0
2023-01-22T03:36:08.472Z,0
2023-01-22T03:39:07.917Z,0
2023-01-22T03:42:07.931Z,0
2023-01-22T03:45:08.059Z,0
2023-01-22T03:48:07.925Z,0
2023-01-22T03:51:08.145Z,0
2023-01-22T03:54:08.082Z,0
2023-01-22T03:57:07.858Z,0
2023-01-22T04:00:07.971Z,0
2023-01-22T04:03:07.929Z,0
2023-01-22T04:06:07.929Z,0
2023-01-22T04:09:07.931Z,0
2023-01-22T04:12:07.908Z,0
2023-01-22T04:15:08.062Z,0
2023-01-22T04:18:07.889Z,0
2023-01-22T04:21:08.045Z,0
2023-01-22T04:24:07.964Z,0
2023-01-22T04:27:07.913Z,0
2023-01-22T04:30:08.141Z,0
2023-01-22T04:33:07.850Z,0
2023-01-22T04:36:07.899Z,0
2023-01-22T04:39:07.911Z,0
2023-01-22T04:42:07.980Z,0
2023-01-22T04:45:08.113Z,0
2023-01-22T04:48:08.056Z,0
2023-01-22T04:51:08.158Z,0
2023-01-22T04:54:08.516Z,0
2023-01-22T04:57:07.921Z,0
2023-01-22T05:00:08.219Z,0
2023-01-22T05:03:07.871Z,0
2023-01-22T05:06:07.896Z,0
2023-01-22T05:09:07.927Z,0
2023-01-22T05:12:07.874Z,0
2023-01-22T05:15:27.745Z,0
2023-01-22T05:18:07.841Z,0
2023-01-22T05:21:07.983Z,0
2023-01-22T05:24:07.847Z,0
2023-01-22T05:27:08.003Z,0
2023-01-22T05:30:08.053Z,0
2023-01-22T05:33:10.432Z,0
2023-01-22T05:36:07.851Z,0
2023-01-22T05:39:08.056Z,0
2023-01-22T05:42:07.816Z,0
2023-01-22T05:45:08.077Z,0
2023-01-22T05:48:07.891Z,0
2023-01-22T05:51:08.117Z,0
2023-01-22T05:54:07.899Z,0
2023-01-22T05:57:08.351Z,0
2023-01-22T06:00:08.110Z,0
2023-01-22T06:03:08.011Z,0
2023-01-22T06:06:07.894Z,0
2023-01-22T06:09:07.912Z,0
2023-01-22T06:12:07.951Z,0
2023-01-22T06:15:08.032Z,0
2023-01-22T06:18:07.965Z,0
2023-01-22T06:21:07.866Z,0
2023-01-22T06:24:07.922Z,0
2023-01-22T06:27:07.804Z,0
2023-01-22T06:30:08.036Z,0
2023-01-22T06:33:07.897Z,0
2023-01-22T06:36:07.956Z,0
2023-01-22T06:39:07.886Z,3
2023-01-22T06:42:07.858Z,3
2023-01-22T06:45:07.978Z,3
2023-01-22T06:48:07.947Z,7
2023-01-22T06:51:08.313Z,10
2023-01-22T06:54:08.119Z,17
2023-01-22T06:57:07.950Z,23
2023-01-22T07:00:08.103Z,30
2023-01-22T07:03:07.849Z,40
2023-01-22T07:06:07.967Z,50
2023-01-22T07:09:07.902Z,63
2023-01-22T07:12:07.824Z,73
2023-01-22T07:15:08.709Z,87
2023-01-22T07:18:08.030Z,103
2023-01-22T07:21:08.108Z,123
2023-01-22T07:24:07.930Z,157
2023-01-22T07:27:07.979Z,177
2023-01-22T07:30:08.211Z,207
2023-01-22T07:33:08.047Z,257
2023-01-22T07:36:08.045Z,280
2023-01-22T07:39:08.087Z,343
2023-01-22T07:42:08.265Z,387
2023-01-22T07:45:08.142Z,420
2023-01-22T07:48:08.022Z,470
2023-01-22T07:51:08.126Z,443
2023-01-22T07:54:08.148Z,447
2023-01-22T07:57:07.996Z,490
2023-01-22T08:00:08.189Z,557
2023-01-22T08:03:07.985Z,687
2023-01-22T08:06:08.095Z,853
2023-01-22T08:09:07.942Z,1063
2023-01-22T08:12:08.121Z,1260
2023-01-22T08:15:08.026Z,1560
2023-01-22T08:18:08.074Z,1667
2023-01-22T08:21:08.285Z,1707
2023-01-22T08:24:08.006Z,1767
2023-01-22T08:27:07.967Z,2050
2023-01-22T08:30:08.090Z,2100
2023-01-22T08:33:07.942Z,2603
2023-01-22T08:36:08.040Z,2687
2023-01-22T08:39:07.995Z,2667
2023-01-22T08:42:07.912Z,2703
2023-01-22T08:45:08.001Z,2703
2023-01-22T08:48:07.899Z,2767
2023-01-22T08:51:08.190Z,2693
2023-01-22T08:57:07.937Z,2487
2023-01-22T09:00:08.754Z,2750
2023-01-22T09:03:07.962Z,2613
2023-01-22T09:06:08.020Z,2543
2023-01-22T09:09:08.024Z,2033
2023-01-22T09:12:07.979Z,2010
2023-01-22T09:15:08.108Z,1933
2023-01-22T09:18:08.080Z,1680
2023-01-22T09:21:08.034Z,1717
2023-01-22T09:24:08.477Z,1887
2023-01-22T09:27:07.981Z,1763
2023-01-22T09:30:08.329Z,1723
2023-01-22T09:33:08.036Z,1657
2023-01-22T09:36:07.999Z,1917
2023-01-22T09:39:07.987Z,2180
2023-01-22T09:42:08.023Z,2407
2023-01-22T09:45:08.061Z,2177
2023-01-22T09:48:07.999Z,2380
2023-01-22T09:51:08.287Z,2447
2023-01-22T09:54:08.195Z,2487
2023-01-22T09:57:07.918Z,2537
2023-01-22T10:00:09.023Z,2960
2023-01-22T10:03:07.964Z,3483
2023-01-22T10:06:08.026Z,4183
2023-01-22T10:09:07.910Z,4987
2023-01-22T10:12:08.041Z,5030
2023-01-22T10:15:08.090Z,4943
2023-01-22T10:18:07.964Z,4617
2023-01-22T10:21:07.919Z,4753
2023-01-22T10:24:08.267Z,5327
2023-01-22T10:27:07.947Z,5387
2023-01-22T10:30:08.665Z,5477
2023-01-22T10:33:07.914Z,5353
2023-01-22T10:36:08.167Z,5883
2023-01-22T10:39:08.134Z,6310
2023-01-22T10:42:08.065Z,5630
2023-01-22T10:45:08.027Z,5833
2023-01-22T10:48:08.157Z,5460
2023-01-22T10:51:08.278Z,5727
2023-01-22T10:54:08.095Z,6367
2023-01-22T10:57:08.099Z,6987
2023-01-22T11:00:08.174Z,6853
2023-01-22T11:03:07.981Z,6637
2023-01-22T11:06:08.025Z,6317
2023-01-22T11:09:08.073Z,5967
2023-01-22T11:12:08.120Z,5780
2023-01-22T11:15:08.083Z,5577
2023-01-22T11:18:08.234Z,6480
2023-01-22T11:21:08.039Z,6177
2023-01-22T11:24:08.112Z,6583
2023-01-22T11:27:08.193Z,6610
2023-01-22T11:30:08.522Z,6617
2023-01-22T11:33:07.958Z,6697
2023-01-22T11:36:11.003Z,7633
2023-01-22T11:39:08.192Z,6207
2023-01-22T11:42:08.187Z,5497
2023-01-22T11:45:08.009Z,5367
2023-01-22T11:48:08.333Z,4920
2023-01-22T11:51:08.139Z,4570
2023-01-22T11:54:08.041Z,4860
2023-01-22T11:57:07.949Z,5323
2023-01-22T12:00:08.450Z,4760
2023-01-22T12:03:08.147Z,4893
2023-01-22T12:06:08.137Z,4637
2023-01-22T12:09:08.229Z,4353
2023-01-22T12:12:08.405Z,4757
2023-01-22T12:15:07.962Z,3990
2023-01-22T12:18:08.084Z,4287
2023-01-22T12:21:07.971Z,4413
2023-01-22T12:24:08.197Z,4117
2023-01-22T12:27:07.956Z,4033
2023-01-22T12:30:08.262Z,3973
2023-01-22T12:33:11.965Z,4050
2023-01-22T12:36:08.227Z,4633
2023-01-22T12:39:08.155Z,4487
2023-01-22T12:42:08.068Z,4353
2023-01-22T12:45:08.126Z,4663
2023-01-22T12:48:08.175Z,4493
2023-01-22T12:51:08.229Z,4510
2023-01-22T12:54:08.192Z,3993
2023-01-22T12:57:08.015Z,3973
2023-01-22T13:00:08.244Z,3727
2023-01-22T13:03:08.040Z,4007
2023-01-22T13:06:08.194Z,4133
2023-01-22T13:09:08.143Z,4237
2023-01-22T13:12:08.163Z,4240
2023-01-22T13:15:08.103Z,4470
2023-01-22T13:18:14.794Z,4200
2023-01-22T13:21:08.097Z,4660
2023-01-22T13:24:08.264Z,4503
2023-01-22T13:27:08.007Z,4313
2023-01-22T13:30:08.393Z,4467
2023-01-22T13:33:08.051Z,4337
2023-01-22T13:36:08.286Z,3950
2023-01-22T13:39:08.088Z,3920
2023-01-22T13:42:08.768Z,3867
2023-01-22T13:45:08.089Z,3617
2023-01-22T13:48:10.851Z,3190
2023-01-22T13:51:08.548Z,3193
2023-01-22T13:54:07.972Z,2783
2023-01-22T13:57:08.054Z,2587
2023-01-22T14:00:08.372Z,2090
2023-01-22T14:03:07.971Z,2003
2023-01-22T14:06:08.219Z,1797
2023-01-22T14:09:08.242Z,1563
2023-01-22T14:12:08.236Z,1427
2023-01-22T14:15:08.353Z,1413
2023-01-22T14:18:08.156Z,1467
2023-01-22T14:21:07.998Z,1470
2023-01-22T14:24:08.141Z,1370
2023-01-22T14:27:07.991Z,1397
2023-01-22T14:30:08.638Z,1417
2023-01-22T14:33:08.059Z,1503
2023-01-22T14:36:08.283Z,1420
2023-01-22T14:39:11.089Z,1367
2023-01-22T14:42:08.162Z,1320
2023-01-22T14:45:08.115Z,1247
2023-01-22T14:48:08.306Z,1127
2023-01-22T14:51:08.290Z,1097
2023-01-22T14:54:07.995Z,1047
2023-01-22T14:57:08.129Z,907
2023-01-22T15:00:08.497Z,860
2023-01-22T15:03:08.133Z,787
2023-01-22T15:06:08.234Z,647
2023-01-22T15:09:08.225Z,657
2023-01-22T15:12:08.257Z,600
2023-01-22T15:15:08.179Z,540
2023-01-22T15:18:08.291Z,413
2023-01-22T15:21:08.371Z,350
2023-01-22T15:24:08.481Z,303
2023-01-22T15:27:08.257Z,293
2023-01-22T15:30:08.443Z,247
2023-01-22T15:33:08.028Z,197
2023-01-22T15:36:08.301Z,170
2023-01-22T15:39:08.261Z,140
2023-01-22T15:42:08.203Z,117
2023-01-22T15:45:08.107Z,97
2023-01-22T15:48:08.191Z,67
2023-01-22T15:51:08.298Z,53
2023-01-22T15:54:08.200Z,40
2023-01-22T15:57:07.982Z,33
2023-01-22T16:00:08.453Z,20
2023-01-22T16:03:08.098Z,13
2023-01-22T16:06:08.219Z,10
2023-01-22T16:09:08.206Z,7
2023-01-22T16:12:08.203Z,3
2023-01-22T16:15:07.927Z,3
2023-01-22T16:18:08.050Z,0
2023-01-22T16:21:08.016Z,0
2023-01-22T16:24:08.231Z,0
2023-01-22T16:27:08.037Z,0
2023-01-22T16:30:08.358Z,0
2023-01-22T16:33:11.270Z,0
2023-01-22T16:36:08.057Z,0
2023-01-22T16:39:08.275Z,0
2023-01-22T16:42:08.168Z,0
2023-01-22T16:45:08.062Z,0
2023-01-22T16:48:08.220Z,0
2023-01-22T16:51:08.260Z,0
2023-01-22T16:54:08.028Z,0
2023-01-22T16:57:07.975Z,0
2023-01-22T17:00:08.309Z,0
2023-01-22T17:03:08.021Z,0
2023-01-22T17:06:08.144Z,0
2023-01-22T17:09:08.179Z,0
2023-01-22T17:12:08.387Z,0
2023-01-22T17:15:08.143Z,0
2023-01-22T17:18:08.173Z,0
2023-01-22T17:21:11.159Z,0
2023-01-22T17:24:08.413Z,0
2023-01-22T17:27:08.036Z,0
2023-01-22T17:30:08.023Z,0
2023-01-22T17:33:08.165Z,0
2023-01-22T17:36:08.118Z,0
2023-01-22T17:39:08.206Z,0
2023-01-22T17:42:07.991Z,0
2023-01-22T17:45:08.057Z,0
2023-01-22T17:48:08.080Z,0
2023-01-22T17:51:08.231Z,0
2023-01-22T17:54:07.881Z,0
2023-01-22T17:57:08.106Z,0
2023-01-22T18:00:08.356Z,0
2023-01-22T18:03:08.321Z,0
2023-01-22T18:06:08.271Z,0
2023-01-22T18:09:08.125Z,0
2023-01-22T18:12:08.088Z,0
2023-01-22T18:15:08.180Z,0
2023-01-22T18:18:08.191Z,0
2023-01-22T18:21:08.126Z,0
2023-01-22T18:24:08.172Z,0
2023-01-22T18:27:08.132Z,0
2023-01-22T18:30:08.190Z,0
2023-01-22T18:33:08.142Z,0
2023-01-22T18:36:08.083Z,0
2023-01-22T18:39:08.289Z,0
2023-01-22T18:42:08.076Z,0
2023-01-22T18:45:08.186Z,0
2023-01-22T18:48:08.193Z,0
2023-01-22T18:51:08.446Z,0
2023-01-22T18:54:07.961Z,0
2023-01-22T18:57:08.226Z,0
2023-01-22T19:00:08.200Z,0
2023-01-22T19:03:08.332Z,0
2023-01-22T19:06:08.063Z,0
2023-01-22T19:09:08.584Z,0
2023-01-22T19:12:08.451Z,0
2023-01-22T19:15:08.282Z,0
2023-01-22T19:18:08.042Z,0
2023-01-22T19:21:08.018Z,0
2023-01-22T19:24:08.250Z,0
2023-01-22T19:27:07.946Z,0
2023-01-22T19:30:08.121Z,0
2023-01-22T19:33:08.198Z,0
2023-01-22T19:36:08.054Z,0
2023-01-22T19:39:08.074Z,0
2023-01-22T19:42:08.303Z,0
2023-01-22T19:45:08.273Z,0
2023-01-22T19:48:08.251Z,0
2023-01-22T19:51:08.842Z,0
2023-01-22T19:54:07.939Z,0
2023-01-22T19:57:08.203Z,0
2023-01-22T20:00:08.441Z,0
2023-01-22T20:03:08.725Z,0
2023-01-22T20:06:08.097Z,0
2023-01-22T20:09:08.599Z,0
2023-01-22T20:12:08.454Z,0
2023-01-22T20:15:08.426Z,0
2023-01-22T20:18:08.228Z,0
2023-01-22T20:21:08.341Z,0
2023-01-22T20:24:08.074Z,0
2023-01-22T20:27:08.204Z,0
2023-01-22T20:30:08.100Z,0
2023-01-22T20:33:08.290Z,0
2023-01-22T20:36:08.284Z,0
2023-01-22T20:39:08.219Z,0
2023-01-22T20:42:11.665Z,0
2023-01-22T20:45:07.904Z,0
2023-01-22T20:48:07.877Z,0
2023-01-22T20:51:08.119Z,0
2023-01-22T20:54:07.824Z,0
2023-01-22T20:57:07.847Z,0
2023-01-22T21:00:07.954Z,0
2023-01-22T21:03:07.948Z,0
2023-01-22T21:06:07.911Z,0
2023-01-22T21:09:08.235Z,0
2023-01-22T21:12:07.879Z,0
2023-01-22T21:15:07.819Z,0
2023-01-22T21:18:07.825Z,0
2023-01-22T21:21:07.865Z,0
2023-01-22T21:24:07.934Z,0
2023-01-22T21:27:07.857Z,0
2023-01-22T21:30:07.851Z,0
2023-01-22T21:33:07.940Z,0
2023-01-22T21:36:07.848Z,0
2023-01-22T21:39:07.908Z,0
2023-01-22T21:42:07.890Z,0
2023-01-22T21:45:08.446Z,0
2023-01-22T21:48:07.876Z,0
2023-01-22T21:51:07.999Z,0
2023-01-22T21:54:07.872Z,0
2023-01-22T21:57:07.939Z,0
2023-01-22T22:00:07.991Z,0
2023-01-22T22:03:07.974Z,0
2023-01-22T22:06:09.186Z,0
2023-01-22T22:09:07.906Z,0
2023-01-22T22:12:07.965Z,0
2023-01-22T22:15:07.865Z,0
2023-01-22T22:18:07.922Z,0
2023-01-22T22:21:07.883Z,0
2023-01-22T22:24:07.954Z,0
2023-01-22T22:27:07.835Z,0
2023-01-22T22:30:08.005Z,0
2023-01-22T22:33:07.838Z,0
2023-01-22T22:36:07.806Z,0
2023-01-22T22:39:07.855Z,0
2023-01-22T22:42:07.952Z,0
2023-01-22T22:45:07.900Z,0
2023-01-22T22:48:07.881Z,0
2023-01-22T22:51:08.112Z,0
2023-01-22T22:54:07.838Z,0
2023-01-22T22:57:07.907Z,0
2023-01-22T23:00:08.829Z,0
2023-01-22T23:03:07.910Z,0
2023-01-22T23:06:07.916Z,0
2023-01-22T23:09:10.910Z,0
2023-01-22T23:12:07.901Z,0
2023-01-22T23:15:07.932Z,0
2023-01-22T23:18:07.829Z,0
2023-01-22T23:21:07.896Z,0
2023-01-22T23:24:07.952Z,0
2023-01-22T23:27:07.937Z,0
2023-01-22T23:30:07.853Z,0
2023-01-22T23:33:07.856Z,0
2023-01-22T23:36:07.916Z,0
2023-01-22T23:39:07.934Z,0
2023-01-22T23:42:07.928Z,0
2023-01-22T23:45:07.922Z,0
2023-01-22T23:48:07.887Z,0
2023-01-22T23:51:08.242Z,0
2023-01-22T23:54:07.888Z,0
2023-01-22T23:57:07.823Z,0
